Quick Links (Output Below):   Max & Min Temps   /   Climate Reports   /   Zone Forecasts
River Forecasts   /   Forestry Forecasts   /   Aviation Forecasts   /   Radars   /   Features

Terminal Aerodrome Forecast (Jonesboro)

Pick a Site:
Arkadelphia | El Dorado | Fayetteville | Fort Smith | Harrison | Highfill | Hot Springs | Jonesboro
Little Rock | Monticello | Mountain Home | Pine Bluff | Texarkana
 Forecast 

KJBR 231720Z 2318/2418 04003KT P6SM BKN150 OVC250
     FM240100 00000KT P6SM SCT080
     FM240400 00000KT P6SM SKC=


 Latest METARs (Observations) 
How to Decode METARs
19Z KJBR 231853Z AUTO 00000KT 10SM CLR 15/07 A3017 RMK AO2 SLP216
         T01500067
         
18Z KJBR 231753Z AUTO 00000KT 10SM CLR 15/07 A3019 RMK AO2 SLP223
         T01500067 10156 20056 58013
         
17Z KJBR 231653Z AUTO 00000KT 10SM CLR 14/07 A3022 RMK AO2 SLP233
         T01440072
         
16Z KJBR 231553Z AUTO VRB05KT 10SM CLR 13/08 A3022 RMK AO2 SLP234
         T01330083
         
15Z KJBR 231453Z AUTO 09003KT 10SM CLR 11/08 A3023 RMK AO2 SLP237
         T01110078 51010
         
14Z KJBR 231353Z AUTO 07005KT 10SM CLR 10/07 A3023 RMK AO2 SLP236
         T01000072
         
13Z KJBR 231253Z AUTO 00000KT 10SM CLR 07/07 A3022 RMK AO2 SLP232
         T00720067
         
12Z KJBR 231153Z AUTO 00000KT 10SM CLR 07/06 A3020 RMK AO2 SLP228
         T00720056 10089 20067 51005
         
11Z KJBR 231053Z AUTO 00000KT 10SM CLR 07/06 A3020 RMK AO2 SLP225
         T00720061
         
10Z KJBR 230953Z AUTO 36003KT 10SM CLR 08/06 A3020 RMK AO2 SLP225
         T00780061
         
***** Today's Observations (Above) *****


Back to Main Page
http://www.srh.noaa.gov/lzk/qfcst.php

USA.gov is the U.S. government's official web portal to all federal, state and local government web resources and services.